createdAt,value
2022-09-18T00:01:38.627Z,12.00
2022-09-18T00:04:08.425Z,12.00
2022-09-18T00:06:39.035Z,12.00
2022-09-18T00:09:09.042Z,12.00
2022-09-18T00:11:40.764Z,11.90
2022-09-18T00:14:12.303Z,11.50
2022-09-18T00:16:41.428Z,11.60
2022-09-18T00:19:09.665Z,11.60
2022-09-18T00:21:40.746Z,11.80
2022-09-18T00:24:09.103Z,11.80
2022-09-18T00:26:37.253Z,11.90
2022-09-18T00:29:07.021Z,11.90
2022-09-18T00:31:36.583Z,11.80
2022-09-18T00:34:07.691Z,11.80
2022-09-18T00:36:36.435Z,11.80
2022-09-18T00:39:05.261Z,11.80
2022-09-18T00:41:36.253Z,11.80
2022-09-18T00:44:39.192Z,11.80
2022-09-18T00:47:27.378Z,11.80
2022-09-18T00:50:02.870Z,11.90
2022-09-18T00:52:36.131Z,11.90
2022-09-18T00:55:09.024Z,11.60
2022-09-18T00:57:41.596Z,10.90
2022-09-18T01:00:14.698Z,10.70
2022-09-18T01:02:44.029Z,10.70
2022-09-18T01:05:15.090Z,10.90
2022-09-18T01:08:09.653Z,11.10
2022-09-18T01:11:02.542Z,11.20
2022-09-18T01:13:42.136Z,11.30
2022-09-18T01:16:21.046Z,11.50
2022-09-18T01:18:56.652Z,11.50
2022-09-18T01:21:34.193Z,11.50
2022-09-18T01:24:35.348Z,11.50
2022-09-18T01:27:05.959Z,11.50
2022-09-18T01:29:45.954Z,11.50
2022-09-18T01:32:23.941Z,11.50
2022-09-18T01:34:59.952Z,11.50
2022-09-18T01:37:33.561Z,11.50
2022-09-18T01:40:10.468Z,11.50
2022-09-18T01:42:40.708Z,11.40
2022-09-18T01:45:13.663Z,11.40
2022-09-18T01:47:47.418Z,11.30
2022-09-18T01:50:18.524Z,11.30
2022-09-18T01:52:53.836Z,11.30
2022-09-18T01:55:26.680Z,11.30
2022-09-18T01:57:58.981Z,11.40
2022-09-18T02:00:30.385Z,11.40
2022-09-18T02:03:02.056Z,11.30
2022-09-18T02:05:33.481Z,11.30
2022-09-18T02:08:11.911Z,11.30
2022-09-18T02:10:44.175Z,11.30
2022-09-18T02:13:16.022Z,11.30
2022-09-18T02:15:48.265Z,11.30
2022-09-18T02:18:22.171Z,11.40
2022-09-18T02:20:50.686Z,11.40
2022-09-18T02:23:18.727Z,11.50
2022-09-18T02:25:51.387Z,11.40
2022-09-18T02:28:22.735Z,11.20
2022-09-18T02:30:52.240Z,11.30
2022-09-18T02:33:31.358Z,11.30
2022-09-18T02:36:31.167Z,11.30
2022-09-18T02:39:10.577Z,11.40
2022-09-18T02:41:47.717Z,11.50
2022-09-18T02:44:20.883Z,11.50
2022-09-18T02:46:59.732Z,11.50
2022-09-18T02:49:38.746Z,11.50
2022-09-18T02:52:12.964Z,11.50
2022-09-18T02:54:45.753Z,11.60
2022-09-18T02:57:17.842Z,11.60
2022-09-18T02:59:49.186Z,11.60
2022-09-18T03:02:20.296Z,11.60
2022-09-18T03:04:48.521Z,11.50
2022-09-18T03:07:16.988Z,11.20
2022-09-18T03:09:45.685Z,11.10
2022-09-18T03:12:16.452Z,11.10
2022-09-18T03:14:44.452Z,11.20
2022-09-18T03:17:12.942Z,11.30
2022-09-18T03:19:44.675Z,11.40
2022-09-18T03:22:12.780Z,11.50
2022-09-18T03:24:40.818Z,11.60
2022-09-18T03:27:10.513Z,11.50
2022-09-18T03:29:38.667Z,11.50
2022-09-18T03:32:06.781Z,11.50
2022-09-18T03:34:34.985Z,11.50
2022-09-18T03:37:04.497Z,11.50
2022-09-18T03:39:32.557Z,11.50
2022-09-18T03:42:00.570Z,11.60
2022-09-18T03:44:28.523Z,11.60
2022-09-18T03:46:56.532Z,11.60
2022-09-18T03:49:25.597Z,11.60
2022-09-18T03:51:53.612Z,11.60
2022-09-18T03:54:23.119Z,11.40
2022-09-18T03:56:53.339Z,11.50
2022-09-18T03:59:21.357Z,11.50
2022-09-18T04:01:49.390Z,11.60
2022-09-18T04:04:17.446Z,11.50
2022-09-18T04:06:45.427Z,11.50
2022-09-18T04:09:13.462Z,11.50
2022-09-18T04:11:42.873Z,11.50
2022-09-18T04:14:11.647Z,11.50
2022-09-18T04:16:39.700Z,11.50
2022-09-18T04:19:08.060Z,11.50
2022-09-18T04:21:36.170Z,11.60
2022-09-18T04:24:04.344Z,11.50
2022-09-18T04:26:32.341Z,11.50
2022-09-18T04:29:01.858Z,11.50
2022-09-18T04:31:29.972Z,11.50
2022-09-18T04:33:58.385Z,11.50
2022-09-18T04:36:26.428Z,11.50
2022-09-18T04:38:54.405Z,11.50
2022-09-18T04:41:22.392Z,11.50
2022-09-18T04:43:50.359Z,11.50
2022-09-18T04:46:19.748Z,11.50
2022-09-18T04:48:50.046Z,11.20
2022-09-18T04:51:18.247Z,11.00
2022-09-18T04:53:46.263Z,11.10
2022-09-18T04:56:14.324Z,10.90
2022-09-18T04:58:42.656Z,11.00
2022-09-18T05:01:10.883Z,11.20
2022-09-18T05:03:40.302Z,11.30
2022-09-18T05:06:08.621Z,11.40
2022-09-18T05:08:37.393Z,11.20
2022-09-18T05:11:05.808Z,11.20
2022-09-18T05:13:33.830Z,11.40
2022-09-18T05:16:02.265Z,11.40
2022-09-18T05:18:30.249Z,11.40
2022-09-18T05:21:02.535Z,11.40
2022-09-18T05:23:30.502Z,11.10
2022-09-18T05:25:58.531Z,10.80
2022-09-18T05:28:26.569Z,10.60
2022-09-18T05:31:00.784Z,10.60
2022-09-18T05:33:28.869Z,10.80
2022-09-18T05:35:58.184Z,10.80
2022-09-18T05:38:28.307Z,11.00
2022-09-18T05:41:00.949Z,11.10
2022-09-18T05:43:29.093Z,11.00
2022-09-18T05:45:57.780Z,10.40
2022-09-18T05:48:25.761Z,10.40
2022-09-18T05:50:53.789Z,10.50
2022-09-18T05:53:22.800Z,10.50
2022-09-18T05:55:52.418Z,10.60
2022-09-18T05:58:21.735Z,10.50
2022-09-18T06:00:51.296Z,10.30
2022-09-18T06:03:19.804Z,10.30
2022-09-18T06:05:54.097Z,10.30
2022-09-18T06:08:22.822Z,10.20
2022-09-18T06:10:53.492Z,10.40
2022-09-18T06:13:21.585Z,10.60
2022-09-18T06:15:52.279Z,10.90
2022-09-18T06:18:20.481Z,11.10
2022-09-18T06:20:54.478Z,11.30
2022-09-18T06:23:23.593Z,11.40
2022-09-18T06:25:59.751Z,11.40
2022-09-18T06:28:28.585Z,11.10
2022-09-18T06:30:56.788Z,11.20
2022-09-18T06:33:24.806Z,11.30
2022-09-18T06:35:53.033Z,11.40
2022-09-18T06:38:21.571Z,11.50
2022-09-18T06:40:51.021Z,11.50
2022-09-18T06:43:21.193Z,11.50
2022-09-18T06:45:53.369Z,11.60
2022-09-18T06:48:21.642Z,11.60
2022-09-18T06:50:53.729Z,11.70
2022-09-18T06:53:22.507Z,11.60
2022-09-18T06:55:50.866Z,11.80
2022-09-18T06:58:20.966Z,11.90
2022-09-18T07:00:51.395Z,12.00
2022-09-18T07:03:19.417Z,12.00
2022-09-18T07:05:47.398Z,12.10
2022-09-18T07:08:15.619Z,12.20
2022-09-18T07:10:43.960Z,12.20
2022-09-18T07:13:11.959Z,12.20
2022-09-18T07:15:43.438Z,12.30
2022-09-18T07:18:11.433Z,12.30
2022-09-18T07:20:39.504Z,12.40
2022-09-18T07:23:07.516Z,12.30
2022-09-18T07:25:35.948Z,12.40
2022-09-18T07:28:05.322Z,12.40
2022-09-18T07:30:33.548Z,12.40
2022-09-18T07:33:03.935Z,12.40
2022-09-18T07:35:32.852Z,12.40
2022-09-18T07:38:01.277Z,12.50
2022-09-18T07:40:29.693Z,12.50
2022-09-18T07:43:00.599Z,12.50
2022-09-18T07:45:28.652Z,12.50
2022-09-18T07:47:56.986Z,12.70
2022-09-18T07:50:26.355Z,12.70
2022-09-18T07:52:56.335Z,12.80
2022-09-18T07:55:25.594Z,12.80
2022-09-18T07:57:55.945Z,12.90
2022-09-18T08:00:23.987Z,13.00
2022-09-18T08:02:52.515Z,13.00
2022-09-18T08:05:20.594Z,13.10
2022-09-18T08:07:49.937Z,13.10
2022-09-18T08:10:18.148Z,13.20
2022-09-18T08:12:46.159Z,13.30
2022-09-18T08:15:14.244Z,13.30
2022-09-18T08:17:46.278Z,13.40
2022-09-18T08:20:14.501Z,13.40
2022-09-18T08:22:43.116Z,13.40
2022-09-18T08:25:12.863Z,13.40
2022-09-18T08:27:42.130Z,13.40
2022-09-18T08:30:13.215Z,13.60
2022-09-18T08:32:43.561Z,13.70
2022-09-18T08:35:12.042Z,13.80
2022-09-18T08:37:40.007Z,13.90
2022-09-18T08:40:10.234Z,13.90
2022-09-18T08:42:46.408Z,14.00
2022-09-18T08:45:32.376Z,14.10
2022-09-18T08:48:05.637Z,14.20
2022-09-18T08:50:38.743Z,14.30
2022-09-18T08:53:12.841Z,14.40
2022-09-18T08:55:45.459Z,14.50
2022-09-18T08:58:18.173Z,14.60
2022-09-18T09:00:49.550Z,14.60
2022-09-18T09:03:28.162Z,14.70
2022-09-18T09:06:00.029Z,14.80
2022-09-18T09:08:42.342Z,14.90
2022-09-18T09:11:16.969Z,15.00
2022-09-18T09:14:16.369Z,15.10
2022-09-18T09:16:45.732Z,15.30
2022-09-18T09:19:35.631Z,15.30
2022-09-18T09:22:08.514Z,15.40
2022-09-18T09:24:45.885Z,15.50
2022-09-18T09:27:22.851Z,15.50
2022-09-18T09:30:01.538Z,15.50
2022-09-18T09:32:34.241Z,15.50
2022-09-18T09:35:15.300Z,15.60
2022-09-18T09:37:45.716Z,15.70
2022-09-18T09:40:17.888Z,15.70
2022-09-18T09:42:51.749Z,15.80
2022-09-18T09:45:28.200Z,15.80
2022-09-18T09:48:04.808Z,15.80
2022-09-18T09:50:43.344Z,15.90
2022-09-18T09:53:13.369Z,15.80
2022-09-18T09:55:51.978Z,15.90
2022-09-18T09:58:29.680Z,15.90
2022-09-18T10:01:08.125Z,16.00
2022-09-18T10:04:00.906Z,16.00
2022-09-18T10:06:41.273Z,16.10
2022-09-18T10:09:16.639Z,16.20
2022-09-18T10:11:55.265Z,16.30
2022-09-18T10:14:28.913Z,16.30
2022-09-18T10:16:59.231Z,16.40
2022-09-18T10:19:36.689Z,16.40
2022-09-18T10:22:09.297Z,16.40
2022-09-18T10:24:48.009Z,16.40
2022-09-18T10:27:16.671Z,16.50
2022-09-18T10:29:45.500Z,16.50
2022-09-18T10:32:32.289Z,16.60
2022-09-18T10:35:00.334Z,16.70
2022-09-18T10:37:42.185Z,16.70
2022-09-18T10:40:30.793Z,16.80
2022-09-18T10:42:59.968Z,16.90
2022-09-18T10:45:30.297Z,16.90
2022-09-18T10:48:13.714Z,17.00
2022-09-18T10:50:53.970Z,17.00
2022-09-18T10:53:32.115Z,17.10
2022-09-18T10:56:05.967Z,17.10
2022-09-18T10:58:35.308Z,17.20
2022-09-18T11:01:05.913Z,17.30
2022-09-18T11:03:45.460Z,17.30
2022-09-18T11:06:19.522Z,17.30
2022-09-18T11:08:50.715Z,17.30
2022-09-18T11:11:26.256Z,17.40
2022-09-18T11:13:59.233Z,17.40
2022-09-18T11:16:30.285Z,17.40
2022-09-18T11:19:08.284Z,17.40
2022-09-18T11:21:45.339Z,17.40
2022-09-18T11:24:21.768Z,17.40
2022-09-18T11:26:54.452Z,17.40
2022-09-18T11:29:29.717Z,17.40
2022-09-18T11:32:03.551Z,17.40
2022-09-18T11:34:36.950Z,17.40
2022-09-18T11:37:09.399Z,17.50
2022-09-18T11:39:40.837Z,17.60
2022-09-18T11:42:12.258Z,17.60
2022-09-18T11:44:41.564Z,17.60
2022-09-18T11:47:33.855Z,17.60
2022-09-18T11:50:17.744Z,17.70
2022-09-18T11:52:49.079Z,17.70
2022-09-18T11:55:26.794Z,17.70
2022-09-18T11:57:58.650Z,17.70
2022-09-18T12:00:31.473Z,17.70
2022-09-18T12:03:07.001Z,17.80
2022-09-18T12:05:47.406Z,17.90
2022-09-18T12:08:19.436Z,18.00
2022-09-18T12:10:54.247Z,18.10
2022-09-18T12:13:45.385Z,18.20
2022-09-18T12:16:19.736Z,18.20
2022-09-18T12:18:55.309Z,18.20
2022-09-18T12:21:36.000Z,18.20
2022-09-18T12:24:04.443Z,18.30
2022-09-18T12:26:43.435Z,18.20
2022-09-18T12:29:21.575Z,18.20
2022-09-18T12:31:59.555Z,18.10
2022-09-18T12:34:37.707Z,18.10
2022-09-18T12:37:18.716Z,18.10
2022-09-18T12:40:06.465Z,18.20
2022-09-18T12:42:48.670Z,18.20
2022-09-18T12:45:32.679Z,18.20
2022-09-18T12:48:18.367Z,18.30
2022-09-18T12:51:01.936Z,18.40
2022-09-18T12:53:42.084Z,18.40
2022-09-18T12:56:20.676Z,18.50
2022-09-18T12:59:07.375Z,18.50
2022-09-18T13:01:39.600Z,18.50
2022-09-18T13:04:18.583Z,18.50
2022-09-18T13:06:53.950Z,18.50
2022-09-18T13:09:29.407Z,18.50
2022-09-18T13:12:01.164Z,18.50
2022-09-18T13:14:34.314Z,18.50
2022-09-18T13:17:09.542Z,18.50
2022-09-18T13:19:42.714Z,18.50
2022-09-18T13:22:16.684Z,18.40
2022-09-18T13:24:49.725Z,18.40
2022-09-18T13:27:19.262Z,18.40
2022-09-18T13:29:58.994Z,18.50
2022-09-18T13:32:39.869Z,18.40
2022-09-18T13:35:20.605Z,18.40
2022-09-18T13:37:49.814Z,18.40
2022-09-18T13:40:35.929Z,18.40
2022-09-18T13:43:33.623Z,18.40
2022-09-18T13:46:07.257Z,18.50
2022-09-18T13:48:42.831Z,18.50
2022-09-18T13:51:18.820Z,18.50
2022-09-18T13:53:46.891Z,18.50
2022-09-18T13:56:17.667Z,18.50
2022-09-18T13:58:55.981Z,18.50
2022-09-18T14:01:59.648Z,18.50
2022-09-18T14:04:50.691Z,18.50
2022-09-18T14:07:55.951Z,18.60
2022-09-18T14:11:13.976Z,18.70
2022-09-18T14:13:55.530Z,18.80
2022-09-18T14:16:40.694Z,18.90
2022-09-18T14:19:32.167Z,19.10
2022-09-18T14:22:01.427Z,19.10
2022-09-18T14:24:57.455Z,19.10
2022-09-18T14:27:53.559Z,19.20
2022-09-18T14:30:25.281Z,19.10
2022-09-18T14:33:05.515Z,19.10
2022-09-18T14:35:42.049Z,19.00
2022-09-18T14:38:27.634Z,19.00
2022-09-18T14:41:00.136Z,19.00
2022-09-18T14:43:28.650Z,19.10
2022-09-18T14:45:58.458Z,19.20
2022-09-18T14:48:31.576Z,19.20
2022-09-18T14:51:08.622Z,19.10
2022-09-18T14:53:45.056Z,19.10
2022-09-18T14:56:16.232Z,19.00
2022-09-18T14:58:47.764Z,18.90
2022-09-18T15:01:21.779Z,18.70
2022-09-18T15:03:52.415Z,18.60
2022-09-18T15:06:22.573Z,18.50
2022-09-18T15:08:53.373Z,18.50
2022-09-18T15:11:24.336Z,18.40
2022-09-18T15:13:54.360Z,18.40
2022-09-18T15:16:30.112Z,18.40
2022-09-18T15:18:59.468Z,18.40
2022-09-18T15:21:33.070Z,18.40
2022-09-18T15:24:03.661Z,18.40
2022-09-18T15:26:33.944Z,18.40
2022-09-18T15:29:03.500Z,18.20
2022-09-18T15:31:33.800Z,18.20
2022-09-18T15:34:06.510Z,18.10
2022-09-18T15:36:37.645Z,18.10
2022-09-18T15:39:07.588Z,18.10
2022-09-18T15:41:41.557Z,18.00
2022-09-18T15:44:47.968Z,17.90
2022-09-18T15:47:32.740Z,17.90
2022-09-18T15:50:02.318Z,17.80
2022-09-18T15:52:37.431Z,17.80
2022-09-18T15:55:12.839Z,17.80
2022-09-18T15:57:49.416Z,17.70
2022-09-18T16:00:19.988Z,17.70
2022-09-18T16:02:53.634Z,17.70
2022-09-18T16:05:22.990Z,17.60
2022-09-18T16:07:54.101Z,17.60
2022-09-18T16:10:45.542Z,17.50
2022-09-18T16:13:31.262Z,17.50
2022-09-18T16:16:25.047Z,17.40
2022-09-18T16:18:57.155Z,17.40
2022-09-18T16:21:28.174Z,17.30
2022-09-18T16:24:01.239Z,17.30
2022-09-18T16:26:32.204Z,17.30
2022-09-18T16:29:02.237Z,17.30
2022-09-18T16:31:32.974Z,17.20
2022-09-18T16:34:04.599Z,17.20
2022-09-18T16:36:34.370Z,17.10
2022-09-18T16:39:05.316Z,17.20
2022-09-18T16:41:34.200Z,17.20
2022-09-18T16:44:04.248Z,17.20
2022-09-18T16:46:35.654Z,17.20
2022-09-18T16:49:05.397Z,17.10
2022-09-18T16:51:33.665Z,17.10
2022-09-18T16:54:01.724Z,17.00
2022-09-18T16:56:34.794Z,17.00
2022-09-18T16:59:04.323Z,16.90
2022-09-18T17:01:48.601Z,16.90
2022-09-18T17:04:23.899Z,16.90
2022-09-18T17:06:51.976Z,16.90
2022-09-18T17:09:21.356Z,16.90
2022-09-18T17:11:49.507Z,16.90
2022-09-18T17:14:17.488Z,16.90
2022-09-18T17:16:45.942Z,16.80
2022-09-18T17:19:14.385Z,16.80
2022-09-18T17:21:44.456Z,16.80
2022-09-18T17:24:13.070Z,16.70
2022-09-18T17:26:44.538Z,16.60
2022-09-18T17:29:12.951Z,16.60
2022-09-18T17:31:44.709Z,16.60
2022-09-18T17:34:13.136Z,16.60
2022-09-18T17:36:41.224Z,16.50
2022-09-18T17:39:10.591Z,16.50
2022-09-18T17:41:39.114Z,16.50
2022-09-18T17:44:07.339Z,16.40
2022-09-18T17:46:35.404Z,16.40
2022-09-18T17:49:03.490Z,16.30
2022-09-18T17:51:32.709Z,16.30
2022-09-18T17:54:03.506Z,16.10
2022-09-18T17:56:34.299Z,16.20
2022-09-18T17:59:05.680Z,16.20
2022-09-18T18:01:36.661Z,16.10
2022-09-18T18:04:05.331Z,16.10
2022-09-18T18:06:33.420Z,16.10
2022-09-18T18:09:01.511Z,16.10
2022-09-18T18:11:29.667Z,16.10
2022-09-18T18:13:59.084Z,16.00
2022-09-18T18:16:30.607Z,15.90
2022-09-18T18:19:01.055Z,15.80
2022-09-18T18:21:30.473Z,15.80
2022-09-18T18:23:59.752Z,15.80
2022-09-18T18:26:28.982Z,15.80
2022-09-18T18:28:58.499Z,15.80
2022-09-18T18:31:27.284Z,15.80
2022-09-18T18:33:56.701Z,15.70
2022-09-18T18:36:26.977Z,15.70
2022-09-18T18:38:57.697Z,15.60
2022-09-18T18:41:27.794Z,15.60
2022-09-18T18:43:58.652Z,15.60
2022-09-18T18:46:29.106Z,15.50
2022-09-18T18:49:02.688Z,15.50
2022-09-18T18:51:32.876Z,15.50
2022-09-18T18:54:02.805Z,15.40
2022-09-18T18:56:32.373Z,15.40
2022-09-18T18:59:03.576Z,15.30
2022-09-18T19:01:32.852Z,15.30
2022-09-18T19:04:03.096Z,15.30
2022-09-18T19:06:31.408Z,15.30
2022-09-18T19:09:00.981Z,15.20
2022-09-18T19:11:31.526Z,15.20
2022-09-18T19:14:01.101Z,15.20
2022-09-18T19:16:32.273Z,15.20
2022-09-18T19:19:00.955Z,15.20
2022-09-18T19:21:29.784Z,15.30
2022-09-18T19:23:59.845Z,15.20
2022-09-18T19:26:29.329Z,15.20
2022-09-18T19:28:59.812Z,15.20
2022-09-18T19:31:30.501Z,15.20
2022-09-18T19:33:58.522Z,15.10
2022-09-18T19:36:29.019Z,15.10
2022-09-18T19:38:58.412Z,15.00
2022-09-18T19:41:33.379Z,15.00
2022-09-18T19:44:04.592Z,14.90
2022-09-18T19:46:34.113Z,14.90
2022-09-18T19:49:02.391Z,14.90
2022-09-18T19:51:33.307Z,14.90
2022-09-18T19:54:01.258Z,14.80
2022-09-18T19:56:42.576Z,14.80
2022-09-18T19:59:12.065Z,14.80
2022-09-18T20:01:41.540Z,14.80
2022-09-18T20:04:10.028Z,14.70
2022-09-18T20:06:40.586Z,14.70
2022-09-18T20:09:08.923Z,14.70
2022-09-18T20:11:37.039Z,14.60
2022-09-18T20:14:05.065Z,14.50
2022-09-18T20:16:33.120Z,14.50
2022-09-18T20:19:02.788Z,14.50
2022-09-18T20:21:30.801Z,14.50
2022-09-18T20:23:59.677Z,14.40
2022-09-18T20:26:28.878Z,14.40
2022-09-18T20:28:57.010Z,14.40
2022-09-18T20:31:25.213Z,14.40
2022-09-18T20:33:56.987Z,14.40
2022-09-18T20:36:27.170Z,14.40
2022-09-18T20:38:57.943Z,14.50
2022-09-18T20:41:29.930Z,14.50
2022-09-18T20:44:01.167Z,14.40
2022-09-18T20:46:29.468Z,14.40
2022-09-18T20:48:57.529Z,14.40
2022-09-18T20:51:28.790Z,14.40
2022-09-18T20:53:58.183Z,14.30
2022-09-18T20:56:29.497Z,14.30
2022-09-18T20:58:57.546Z,14.30
2022-09-18T21:01:28.930Z,14.20
2022-09-18T21:03:58.838Z,14.10
2022-09-18T21:06:31.775Z,14.20
2022-09-18T21:09:00.987Z,14.30
2022-09-18T21:11:30.804Z,14.40
2022-09-18T21:14:00.868Z,14.40
2022-09-18T21:16:31.183Z,14.40
2022-09-18T21:19:01.878Z,14.40
2022-09-18T21:21:33.866Z,14.20
2022-09-18T21:24:02.609Z,13.80
2022-09-18T21:26:33.417Z,13.80
2022-09-18T21:29:03.233Z,13.90
2022-09-18T21:31:33.579Z,13.80
2022-09-18T21:34:03.837Z,13.80
2022-09-18T21:36:38.415Z,13.90
2022-09-18T21:39:08.375Z,13.90
2022-09-18T21:41:39.415Z,13.60
2022-09-18T21:44:08.996Z,13.50
2022-09-18T21:46:39.058Z,13.60
2022-09-18T21:49:08.985Z,13.80
2022-09-18T21:51:41.221Z,13.90
2022-09-18T21:54:15.230Z,13.90
2022-09-18T21:56:44.154Z,13.90
2022-09-18T21:59:14.376Z,14.00
2022-09-18T22:01:43.616Z,14.00
2022-09-18T22:04:13.409Z,14.10
2022-09-18T22:06:45.397Z,14.20
2022-09-18T22:09:16.086Z,14.20
2022-09-18T22:11:45.119Z,14.20
2022-09-18T22:14:15.548Z,14.20
2022-09-18T22:16:45.115Z,14.20
2022-09-18T22:19:13.502Z,14.00
2022-09-18T22:21:45.396Z,14.00
2022-09-18T22:24:18.890Z,14.00
2022-09-18T22:26:49.294Z,14.10
2022-09-18T22:29:21.405Z,14.10
2022-09-18T22:31:49.886Z,13.70
2022-09-18T22:34:19.612Z,13.60
2022-09-18T22:36:49.955Z,13.70
2022-09-18T22:39:20.088Z,13.80
2022-09-18T22:41:48.797Z,13.80
2022-09-18T22:44:17.182Z,13.80
2022-09-18T22:46:46.887Z,13.80
2022-09-18T22:49:16.721Z,13.80
2022-09-18T22:51:46.501Z,13.80
2022-09-18T22:54:16.972Z,13.80
2022-09-18T22:56:46.948Z,13.90
2022-09-18T22:59:17.252Z,13.90
2022-09-18T23:01:49.107Z,13.90
2022-09-18T23:04:18.989Z,13.80
2022-09-18T23:06:47.829Z,13.90
2022-09-18T23:09:18.752Z,13.70
2022-09-18T23:11:48.206Z,13.80
2022-09-18T23:14:18.411Z,13.90
2022-09-18T23:16:47.040Z,13.50
2022-09-18T23:19:17.653Z,13.30
2022-09-18T23:21:45.997Z,13.40
2022-09-18T23:24:16.023Z,13.50
2022-09-18T23:26:46.952Z,13.60
2022-09-18T23:29:17.329Z,13.70
2022-09-18T23:31:47.235Z,13.40
2022-09-18T23:34:17.138Z,13.30
2022-09-18T23:36:47.166Z,13.00
2022-09-18T23:39:18.405Z,13.00
2022-09-18T23:41:48.188Z,13.10
2022-09-18T23:44:18.362Z,13.20
2022-09-18T23:46:47.670Z,13.40
2022-09-18T23:49:17.027Z,13.50
2022-09-18T23:51:46.768Z,13.50
2022-09-18T23:54:17.758Z,13.50
2022-09-18T23:56:47.889Z,13.40
2022-09-18T23:59:21.921Z,13.50
